createdAt,value
2022-11-27T00:01:18.112Z,28.13
2022-11-27T00:03:47.391Z,20.20
2022-11-27T00:06:16.150Z,22.08
2022-11-27T00:08:43.954Z,25.80
2022-11-27T00:11:12.326Z,21.60
2022-11-27T00:13:40.105Z,20.10
2022-11-27T00:16:08.221Z,18.95
2022-11-27T00:18:36.655Z,23.08
2022-11-27T00:21:06.585Z,18.40
2022-11-27T00:23:34.765Z,22.35
2022-11-27T00:26:02.330Z,23.00
2022-11-27T00:28:29.835Z,20.23
2022-11-27T00:30:59.419Z,24.17
2022-11-27T00:33:27.196Z,19.00
2022-11-27T00:35:54.672Z,22.95
2022-11-27T00:38:23.506Z,25.40
2022-11-27T00:40:50.985Z,24.80
2022-11-27T00:43:18.487Z,25.77
2022-11-27T00:45:49.385Z,27.70
2022-11-27T00:48:16.859Z,26.30
2022-11-27T00:50:44.314Z,21.17
2022-11-27T00:53:11.962Z,23.42
2022-11-27T00:55:40.814Z,23.42
2022-11-27T00:58:08.725Z,20.67
2022-11-27T01:00:36.205Z,27.63
2022-11-27T01:03:03.722Z,21.30
2022-11-27T01:05:31.274Z,20.13
2022-11-27T01:07:58.812Z,17.50
2022-11-27T01:10:26.436Z,26.98
2022-11-27T01:12:55.265Z,25.40
2022-11-27T01:15:22.767Z,22.98
2022-11-27T01:17:50.195Z,20.38
2022-11-27T01:20:17.737Z,23.15
2022-11-27T01:22:45.260Z,25.38
2022-11-27T01:25:12.714Z,20.00
2022-11-27T01:27:40.217Z,19.38
2022-11-27T01:30:09.980Z,24.02
2022-11-27T01:32:37.460Z,20.90
2022-11-27T01:35:05.138Z,22.65
2022-11-27T01:37:32.625Z,23.30
2022-11-27T01:40:00.128Z,24.83
2022-11-27T01:42:27.642Z,24.55
2022-11-27T01:44:56.044Z,22.95
2022-11-27T01:47:36.070Z,21.30
2022-11-27T01:50:14.663Z,23.10
2022-11-27T01:52:44.091Z,21.92
2022-11-27T01:55:13.499Z,22.80
2022-11-27T01:57:42.289Z,23.35
2022-11-27T02:00:12.930Z,17.58
2022-11-27T02:02:42.174Z,20.30
2022-11-27T02:05:10.710Z,21.45
2022-11-27T02:07:38.286Z,20.70
2022-11-27T02:10:06.707Z,24.80
2022-11-27T02:12:36.945Z,18.92
2022-11-27T02:15:09.002Z,19.35
2022-11-27T02:17:38.674Z,19.90
2022-11-27T02:20:14.861Z,20.15
2022-11-27T02:22:49.421Z,22.00
2022-11-27T02:25:26.778Z,21.45
2022-11-27T02:28:06.037Z,18.02
2022-11-27T02:33:05.550Z,20.85
2022-11-27T02:35:35.401Z,19.75
2022-11-27T02:38:05.917Z,20.13
2022-11-27T02:40:36.417Z,22.80
2022-11-27T02:43:07.727Z,23.65
2022-11-27T02:48:04.415Z,24.88
2022-11-27T02:50:33.187Z,21.58
2022-11-27T02:53:02.889Z,19.15
2022-11-27T02:55:32.598Z,29.40
2022-11-27T02:58:01.828Z,24.67
2022-11-27T03:00:29.978Z,31.35
2022-11-27T03:02:58.944Z,25.50
2022-11-27T03:05:29.565Z,23.83
2022-11-27T03:08:00.659Z,23.52
2022-11-27T03:10:31.471Z,22.50
2022-11-27T03:12:59.784Z,25.30
2022-11-27T03:15:30.093Z,28.45
2022-11-27T03:18:01.061Z,26.20
2022-11-27T03:20:32.149Z,28.25
2022-11-27T03:22:59.692Z,25.00
2022-11-27T03:25:27.154Z,21.30
2022-11-27T03:27:57.066Z,28.58
2022-11-27T03:30:24.558Z,27.15
2022-11-27T03:32:52.254Z,25.77
2022-11-27T03:35:20.903Z,26.70
2022-11-27T03:37:49.766Z,33.58
2022-11-27T03:40:17.753Z,24.05
2022-11-27T03:42:49.712Z,28.60
2022-11-27T03:45:23.374Z,27.23
2022-11-27T03:47:55.122Z,25.08
2022-11-27T03:50:29.248Z,27.30
2022-11-27T03:53:01.641Z,24.95
2022-11-27T03:55:32.826Z,24.30
2022-11-27T04:00:28.746Z,21.67
2022-11-27T04:02:56.230Z,29.38
2022-11-27T04:05:23.909Z,26.90
2022-11-27T04:07:51.391Z,26.35
2022-11-27T04:10:20.481Z,24.23
2022-11-27T04:12:47.993Z,25.40
2022-11-27T04:15:15.496Z,23.75
2022-11-27T04:17:42.960Z,22.42
2022-11-27T04:20:11.812Z,20.52
2022-11-27T04:22:39.330Z,24.27
2022-11-27T04:25:07.161Z,20.75
2022-11-27T04:27:35.997Z,18.60
2022-11-27T04:30:03.480Z,18.95
2022-11-27T04:32:30.950Z,19.67
2022-11-27T04:34:58.418Z,21.90
2022-11-27T04:37:25.898Z,19.98
2022-11-27T04:39:53.393Z,18.48
2022-11-27T04:42:20.869Z,23.15
2022-11-27T04:44:49.704Z,22.25
2022-11-27T04:47:17.217Z,20.92
2022-11-27T04:49:44.793Z,19.35
2022-11-27T04:52:12.265Z,21.85
2022-11-27T04:54:39.918Z,20.80
2022-11-27T04:57:07.853Z,21.77
2022-11-27T04:59:35.330Z,25.15
2022-11-27T05:02:04.204Z,20.02
2022-11-27T05:04:31.653Z,17.17
2022-11-27T05:06:59.129Z,21.50
2022-11-27T05:09:26.648Z,19.70
2022-11-27T05:11:54.131Z,18.17
2022-11-27T05:14:22.683Z,18.63
2022-11-27T05:16:51.067Z,21.65
2022-11-27T05:19:21.006Z,21.00
2022-11-27T05:21:48.748Z,22.55
2022-11-27T05:24:16.737Z,18.15
2022-11-27T05:26:44.479Z,18.45
2022-11-27T05:29:11.992Z,21.30
2022-11-27T05:31:39.797Z,21.58
2022-11-27T05:34:07.372Z,19.63
2022-11-27T05:36:36.261Z,24.42
2022-11-27T05:39:04.697Z,23.95
2022-11-27T05:41:32.139Z,19.65
2022-11-27T05:43:59.568Z,23.15
2022-11-27T05:46:27.065Z,21.35
2022-11-27T05:48:54.652Z,22.40
2022-11-27T05:51:22.448Z,21.70
2022-11-27T05:53:51.318Z,22.58
2022-11-27T05:56:19.307Z,20.70
2022-11-27T05:58:47.676Z,23.55
2022-11-27T06:01:16.065Z,23.83
2022-11-27T06:03:43.594Z,19.98
2022-11-27T06:06:12.689Z,21.92
2022-11-27T06:08:40.814Z,18.30
2022-11-27T06:11:10.288Z,19.50
2022-11-27T06:13:38.044Z,19.67
2022-11-27T06:16:07.241Z,22.33
2022-11-27T06:18:34.752Z,17.45
2022-11-27T06:21:02.249Z,20.35
2022-11-27T06:23:29.716Z,22.70
2022-11-27T06:25:57.185Z,23.70
2022-11-27T06:28:26.024Z,25.55
2022-11-27T06:30:53.487Z,22.35
2022-11-27T06:33:20.957Z,21.63
2022-11-27T06:35:48.432Z,18.88
2022-11-27T06:38:15.917Z,20.27
2022-11-27T06:40:43.513Z,23.80
2022-11-27T06:43:11.024Z,23.02
2022-11-27T06:45:39.880Z,34.70
2022-11-27T06:48:07.513Z,21.65
2022-11-27T06:50:34.953Z,25.60
2022-11-27T06:53:02.461Z,25.65
2022-11-27T06:55:29.932Z,26.00
2022-11-27T06:57:57.408Z,20.90
2022-11-27T07:00:24.910Z,20.77
2022-11-27T07:02:56.062Z,23.55
2022-11-27T07:05:24.490Z,25.70
2022-11-27T07:07:52.051Z,24.17
2022-11-27T07:10:19.522Z,22.42
2022-11-27T07:12:46.954Z,24.20
2022-11-27T07:15:14.434Z,21.50
2022-11-27T07:17:42.593Z,21.42
2022-11-27T07:20:11.962Z,24.10
2022-11-27T07:22:39.421Z,23.65
2022-11-27T07:25:07.408Z,20.77
2022-11-27T07:27:34.940Z,20.33
2022-11-27T07:30:02.422Z,24.73
2022-11-27T07:32:29.886Z,21.95
2022-11-27T07:34:57.353Z,27.83
2022-11-27T07:37:26.224Z,24.13
2022-11-27T07:40:02.464Z,24.90
2022-11-27T07:42:39.067Z,22.35
2022-11-27T07:45:07.425Z,20.35
2022-11-27T07:47:34.977Z,22.00
2022-11-27T07:50:02.565Z,25.05
2022-11-27T07:52:32.282Z,22.48
2022-11-27T07:55:01.088Z,18.60
2022-11-27T07:57:28.842Z,22.65
2022-11-27T07:59:56.278Z,18.17
2022-11-27T08:02:23.834Z,24.92
2022-11-27T08:04:51.405Z,24.88
2022-11-27T08:07:18.954Z,29.27
2022-11-27T08:09:48.059Z,24.73
2022-11-27T08:12:15.758Z,22.23
2022-11-27T08:14:43.263Z,23.83
2022-11-27T08:17:13.232Z,22.58
2022-11-27T08:19:40.710Z,21.45
2022-11-27T08:22:11.576Z,24.27
2022-11-27T08:24:39.375Z,25.48
2022-11-27T08:27:08.439Z,24.65
2022-11-27T08:29:35.973Z,28.55
2022-11-27T08:32:03.809Z,26.50
2022-11-27T08:34:31.355Z,26.20
2022-11-27T08:36:58.810Z,24.75
2022-11-27T08:39:27.315Z,23.55
2022-11-27T08:41:55.016Z,20.45
2022-11-27T08:44:24.023Z,23.08
2022-11-27T08:46:51.719Z,22.35
2022-11-27T08:49:19.309Z,24.75
2022-11-27T08:51:46.860Z,21.83
2022-11-27T08:54:14.490Z,24.60
2022-11-27T08:56:41.947Z,23.55
2022-11-27T08:59:09.435Z,23.70
2022-11-27T09:01:38.417Z,21.10
2022-11-27T09:04:06.114Z,22.40
2022-11-27T09:06:34.682Z,24.27
2022-11-27T09:09:02.769Z,21.23
2022-11-27T09:11:31.099Z,26.02
2022-11-27T09:13:59.778Z,20.63
2022-11-27T09:16:28.047Z,19.10
2022-11-27T09:18:57.698Z,20.55
2022-11-27T09:21:27.072Z,21.35
2022-11-27T09:23:54.949Z,20.83
2022-11-27T09:26:23.779Z,19.23
2022-11-27T09:28:51.269Z,18.67
2022-11-27T09:31:19.456Z,21.67
2022-11-27T09:33:47.071Z,24.13
2022-11-27T09:36:17.136Z,26.10
2022-11-27T09:38:44.744Z,19.90
2022-11-27T09:41:21.570Z,23.80
2022-11-27T09:43:52.282Z,18.33
2022-11-27T09:46:25.509Z,20.33
2022-11-27T09:48:53.759Z,17.63
2022-11-27T09:51:24.662Z,19.58
2022-11-27T09:53:57.291Z,17.73
2022-11-27T09:56:25.170Z,18.73
2022-11-27T09:58:57.333Z,17.38
2022-11-27T10:01:33.644Z,17.42
2022-11-27T10:04:06.422Z,24.88
2022-11-27T10:06:43.313Z,17.70
2022-11-27T10:09:18.169Z,17.73
2022-11-27T10:11:48.970Z,15.15
2022-11-27T10:14:33.079Z,15.98
2022-11-27T10:17:03.802Z,18.33
2022-11-27T10:19:33.402Z,17.13
2022-11-27T10:22:03.697Z,15.60
2022-11-27T10:24:36.770Z,16.60
2022-11-27T10:27:09.320Z,13.93
2022-11-27T10:29:37.695Z,15.50
2022-11-27T10:32:07.853Z,13.20
2022-11-27T10:34:38.540Z,14.07
2022-11-27T10:37:12.372Z,16.30
2022-11-27T10:39:42.824Z,13.73
2022-11-27T10:42:11.575Z,16.30
2022-11-27T10:44:41.370Z,14.27
2022-11-27T10:47:10.374Z,11.00
2022-11-27T10:49:40.009Z,17.65
2022-11-27T10:52:13.097Z,18.05
2022-11-27T10:54:41.286Z,13.98
2022-11-27T10:57:26.527Z,17.67
2022-11-27T11:00:01.602Z,16.45
2022-11-27T11:02:30.584Z,16.20
2022-11-27T11:05:24.181Z,13.07
2022-11-27T11:07:55.686Z,18.10
2022-11-27T11:10:25.769Z,10.25
2022-11-27T11:13:04.628Z,13.18
2022-11-27T11:15:32.531Z,8.93
2022-11-27T11:18:00.181Z,11.48
2022-11-27T11:20:27.715Z,11.95
2022-11-27T11:22:56.661Z,16.73
2022-11-27T11:25:24.182Z,20.33
2022-11-27T11:27:52.220Z,15.80
2022-11-27T11:30:23.451Z,20.70
2022-11-27T11:32:51.610Z,15.43
2022-11-27T11:35:26.808Z,15.18
2022-11-27T11:37:54.687Z,12.07
2022-11-27T11:40:25.822Z,11.57
2022-11-27T11:45:21.264Z,12.63
2022-11-27T11:47:50.085Z,12.85
2022-11-27T11:50:23.067Z,11.63
2022-11-27T11:52:55.572Z,9.70
2022-11-27T11:55:27.590Z,17.58
2022-11-27T11:58:12.689Z,10.63
2022-11-27T12:01:04.873Z,11.05
2022-11-27T12:06:13.081Z,11.45
2022-11-27T12:08:45.607Z,10.55
2022-11-27T12:11:16.197Z,9.07
2022-11-27T12:13:50.414Z,8.27
2022-11-27T12:16:22.113Z,12.05
2022-11-27T12:18:54.906Z,9.93
2022-11-27T12:21:25.105Z,12.85
2022-11-27T12:23:56.660Z,7.97
2022-11-27T12:26:32.425Z,8.10
2022-11-27T12:29:23.742Z,9.40
2022-11-27T12:32:08.426Z,8.88
2022-11-27T12:34:40.764Z,8.82
2022-11-27T12:37:14.793Z,9.73
2022-11-27T12:39:51.177Z,9.77
2022-11-27T12:42:22.292Z,8.70
2022-11-27T12:44:54.107Z,10.77
2022-11-27T12:47:24.207Z,9.13
2022-11-27T12:49:52.933Z,11.57
2022-11-27T12:52:21.569Z,10.40
2022-11-27T12:54:52.108Z,10.52
2022-11-27T12:57:23.117Z,10.52
2022-11-27T13:02:30.570Z,9.30
2022-11-27T13:05:01.221Z,10.38
2022-11-27T13:07:30.714Z,10.57
2022-11-27T13:10:00.068Z,10.70
2022-11-27T13:12:30.776Z,11.05
2022-11-27T13:15:01.365Z,9.43
2022-11-27T13:17:33.384Z,7.82
2022-11-27T13:20:02.142Z,10.05
2022-11-27T13:22:32.063Z,7.93
2022-11-27T13:25:01.610Z,10.23
2022-11-27T13:27:31.378Z,9.05
2022-11-27T13:30:01.844Z,8.88
2022-11-27T13:32:30.374Z,8.30
2022-11-27T13:35:00.070Z,10.77
2022-11-27T13:37:29.666Z,10.27
2022-11-27T13:40:01.073Z,11.93
2022-11-27T13:42:29.260Z,9.38
2022-11-27T13:44:59.292Z,7.45
2022-11-27T13:47:28.964Z,7.18
2022-11-27T13:50:01.397Z,8.23
2022-11-27T13:52:29.605Z,7.90
2022-11-27T13:54:58.063Z,8.02
2022-11-27T13:57:26.359Z,8.32
2022-11-27T14:00:02.472Z,13.52
2022-11-27T14:02:41.191Z,7.38
2022-11-27T14:05:08.857Z,10.20
2022-11-27T14:07:37.497Z,11.77
2022-11-27T14:10:10.113Z,10.05
2022-11-27T14:12:38.396Z,9.90
2022-11-27T14:15:09.926Z,10.10
2022-11-27T14:17:40.314Z,9.55
2022-11-27T14:20:22.014Z,8.85
2022-11-27T14:25:38.143Z,9.45
2022-11-27T14:28:10.318Z,8.15
2022-11-27T14:30:41.158Z,7.63
2022-11-27T14:33:19.142Z,8.02
2022-11-27T14:35:49.076Z,12.23
2022-11-27T14:38:16.881Z,9.25
2022-11-27T14:40:44.678Z,7.03
2022-11-27T14:43:15.192Z,11.00
2022-11-27T14:45:44.756Z,7.45
2022-11-27T14:48:23.693Z,10.20
2022-11-27T14:50:51.877Z,13.98
2022-11-27T14:53:20.285Z,12.05
2022-11-27T14:55:49.138Z,9.38
2022-11-27T14:58:19.478Z,12.70
2022-11-27T15:00:54.055Z,9.02
2022-11-27T15:03:23.070Z,8.13
2022-11-27T15:05:54.557Z,10.73
2022-11-27T15:08:22.303Z,8.68
2022-11-27T15:10:50.060Z,9.65
2022-11-27T15:13:22.016Z,12.35
2022-11-27T15:15:54.624Z,9.73
2022-11-27T15:18:24.168Z,11.25
2022-11-27T15:20:52.280Z,11.38
2022-11-27T15:23:21.282Z,9.23
2022-11-27T15:25:50.134Z,14.10
2022-11-27T15:28:28.413Z,9.20
2022-11-27T15:30:56.273Z,11.90
2022-11-27T15:33:27.462Z,9.07
2022-11-27T15:35:55.441Z,10.68
2022-11-27T15:38:23.127Z,11.93
2022-11-27T15:40:59.199Z,13.07
2022-11-27T15:43:26.706Z,11.27
2022-11-27T15:45:54.216Z,14.13
2022-11-27T15:48:22.175Z,10.98
2022-11-27T15:50:51.972Z,9.43
2022-11-27T15:53:19.854Z,13.00
2022-11-27T15:55:47.295Z,8.38
2022-11-27T15:58:14.770Z,9.93
2022-11-27T16:00:42.319Z,10.07
2022-11-27T16:03:09.909Z,11.73
2022-11-27T16:05:37.369Z,12.57
2022-11-27T16:08:07.679Z,13.02
2022-11-27T16:10:35.250Z,10.43
2022-11-27T16:13:02.742Z,12.27
2022-11-27T16:15:33.107Z,11.93
2022-11-27T16:18:00.845Z,14.10
2022-11-27T16:20:28.599Z,11.38
2022-11-27T16:22:56.059Z,13.75
2022-11-27T16:25:26.272Z,13.48
2022-11-27T16:27:57.954Z,12.27
2022-11-27T16:30:28.545Z,12.45
2022-11-27T16:32:56.681Z,11.40
2022-11-27T16:35:24.998Z,8.10
2022-11-27T16:37:52.532Z,11.88
2022-11-27T16:40:20.398Z,12.48
2022-11-27T16:42:49.245Z,14.07
2022-11-27T16:45:16.787Z,10.60
2022-11-27T16:47:44.383Z,11.63
2022-11-27T16:50:11.977Z,11.63
2022-11-27T16:52:39.490Z,16.10
2022-11-27T16:55:07.346Z,12.40
2022-11-27T16:57:34.806Z,16.98
2022-11-27T17:00:03.800Z,17.33
2022-11-27T17:02:31.355Z,13.13
2022-11-27T17:04:58.994Z,13.52
2022-11-27T17:07:26.551Z,12.27
2022-11-27T17:09:54.200Z,15.65
2022-11-27T17:12:21.711Z,12.35
2022-11-27T17:14:49.431Z,20.30
2022-11-27T17:17:18.405Z,16.13
2022-11-27T17:19:47.215Z,15.05
2022-11-27T17:22:14.734Z,14.85
2022-11-27T17:24:42.293Z,20.30
2022-11-27T17:27:09.763Z,13.60
2022-11-27T17:29:37.328Z,15.13
2022-11-27T17:32:07.208Z,14.25
2022-11-27T17:34:36.246Z,13.77
2022-11-27T17:37:03.733Z,15.95
2022-11-27T17:39:31.181Z,11.25
2022-11-27T17:41:58.777Z,13.88
2022-11-27T17:44:26.338Z,11.60
2022-11-27T17:46:53.823Z,15.85
2022-11-27T17:49:21.985Z,14.90
2022-11-27T17:51:50.942Z,18.25
2022-11-27T17:54:18.431Z,17.30
2022-11-27T17:56:51.056Z,14.13
2022-11-27T17:59:18.747Z,14.82
2022-11-27T18:01:48.334Z,18.55
2022-11-27T18:04:15.858Z,18.20
2022-11-27T18:06:43.341Z,14.20
2022-11-27T18:09:12.383Z,19.17
2022-11-27T18:11:40.582Z,25.80
2022-11-27T18:14:08.108Z,14.43
2022-11-27T18:16:36.543Z,15.52
2022-11-27T18:19:05.338Z,16.90
2022-11-27T18:21:33.098Z,19.48
2022-11-27T18:29:37.673Z,18.10
2022-11-27T18:32:05.469Z,14.43
2022-11-27T18:34:33.076Z,17.02
2022-11-27T18:37:00.793Z,12.13
2022-11-27T18:39:28.535Z,16.13
2022-11-27T18:41:57.596Z,20.65
2022-11-27T18:44:25.167Z,17.65
2022-11-27T18:46:52.737Z,17.05
2022-11-27T18:49:22.694Z,12.68
2022-11-27T18:51:50.704Z,14.27
2022-11-27T18:54:18.223Z,17.38
2022-11-27T18:56:45.717Z,13.98
2022-11-27T18:59:14.798Z,16.60
2022-11-27T19:01:42.965Z,13.30
2022-11-27T19:04:11.127Z,12.90
2022-11-27T19:06:39.722Z,15.00
2022-11-27T19:09:07.209Z,15.45
2022-11-27T19:11:35.902Z,13.40
2022-11-27T19:14:03.786Z,14.73
2022-11-27T19:16:34.195Z,12.18
2022-11-27T19:19:02.790Z,13.98
2022-11-27T19:21:31.734Z,15.43
2022-11-27T19:23:59.757Z,16.33
2022-11-27T19:26:28.179Z,17.20
2022-11-27T19:28:57.074Z,17.83
2022-11-27T19:31:25.185Z,14.02
2022-11-27T19:33:54.486Z,12.68
2022-11-27T19:36:22.093Z,15.95
2022-11-27T19:38:54.150Z,13.52
2022-11-27T19:41:21.750Z,13.43
2022-11-27T19:43:49.218Z,16.02
2022-11-27T19:46:17.360Z,14.80
2022-11-27T19:48:45.204Z,15.80
2022-11-27T19:51:14.474Z,14.23
2022-11-27T19:53:42.269Z,14.23
2022-11-27T19:56:09.930Z,14.15
2022-11-27T19:58:38.097Z,15.15
2022-11-27T20:01:06.522Z,13.93
2022-11-27T20:03:34.080Z,17.50
2022-11-27T20:06:02.493Z,15.43
2022-11-27T20:08:31.328Z,26.08
2022-11-27T20:10:58.844Z,16.38
2022-11-27T20:13:26.529Z,13.38
2022-11-27T20:15:55.381Z,14.93
2022-11-27T20:18:23.050Z,16.90
2022-11-27T20:20:50.541Z,13.80
2022-11-27T20:23:18.015Z,13.73
2022-11-27T20:25:49.215Z,16.88
2022-11-27T20:28:16.709Z,16.58
2022-11-27T20:30:44.513Z,15.82
2022-11-27T20:33:13.070Z,15.00
2022-11-27T20:35:42.098Z,18.45
2022-11-27T20:38:09.549Z,13.32
2022-11-27T20:40:38.867Z,16.70
2022-11-27T20:43:08.848Z,16.50
2022-11-27T20:45:37.452Z,14.10
2022-11-27T20:48:05.162Z,19.98
2022-11-27T20:50:32.665Z,15.15
2022-11-27T20:53:00.116Z,17.58
2022-11-27T20:55:27.726Z,16.95
2022-11-27T20:57:55.252Z,16.02
2022-11-27T21:00:24.412Z,17.10
2022-11-27T21:02:51.875Z,19.45
2022-11-27T21:05:20.017Z,17.70
2022-11-27T21:07:47.617Z,18.20
2022-11-27T21:10:16.314Z,16.13
2022-11-27T21:12:43.863Z,15.13
2022-11-27T21:15:13.029Z,14.95
2022-11-27T21:17:41.885Z,14.63
2022-11-27T21:20:09.878Z,18.33
2022-11-27T21:22:37.386Z,19.30
2022-11-27T21:25:05.133Z,20.08
2022-11-27T21:27:32.668Z,16.60
2022-11-27T21:30:00.141Z,21.10
2022-11-27T21:32:27.709Z,17.58
2022-11-27T21:34:56.576Z,17.58
2022-11-27T21:37:24.709Z,14.63
2022-11-27T21:39:52.189Z,15.60
2022-11-27T21:42:20.333Z,15.40
2022-11-27T21:44:47.814Z,17.08
2022-11-27T21:47:15.272Z,14.95
2022-11-27T21:49:42.897Z,17.90
2022-11-27T21:52:11.696Z,15.27
2022-11-27T21:54:39.369Z,17.73
2022-11-27T21:57:07.012Z,16.23
2022-11-27T21:59:34.484Z,15.98
2022-11-27T22:02:01.963Z,22.60
2022-11-27T22:04:29.618Z,18.52
2022-11-27T22:06:57.144Z,17.13
2022-11-27T22:09:27.354Z,16.02
2022-11-27T22:11:54.814Z,18.98
2022-11-27T22:14:22.301Z,15.05
2022-11-27T22:16:49.846Z,16.08
2022-11-27T22:19:17.505Z,13.77
2022-11-27T22:21:45.277Z,20.15
2022-11-27T22:24:18.230Z,16.00
2022-11-27T22:26:47.590Z,18.65
2022-11-27T22:29:15.060Z,16.02
2022-11-27T22:31:42.488Z,16.33
2022-11-27T22:34:09.971Z,16.67
2022-11-27T22:36:37.504Z,14.40
2022-11-27T22:39:06.162Z,18.08
2022-11-27T22:41:36.337Z,16.80
2022-11-27T22:44:07.068Z,16.27
2022-11-27T22:46:35.517Z,16.63
2022-11-27T22:49:04.340Z,19.80
2022-11-27T22:51:32.546Z,15.27
2022-11-27T22:54:00.981Z,21.10
2022-11-27T22:56:28.486Z,17.55
2022-11-27T22:59:17.425Z,17.08
2022-11-27T23:01:44.739Z,13.15
2022-11-27T23:04:12.261Z,19.40
2022-11-27T23:06:39.768Z,18.25
2022-11-27T23:09:07.244Z,16.63
2022-11-27T23:11:34.734Z,14.82
2022-11-27T23:14:02.205Z,16.05
2022-11-27T23:16:29.743Z,22.13
2022-11-27T23:18:58.689Z,20.52
2022-11-27T23:21:26.736Z,16.58
2022-11-27T23:23:54.254Z,16.83
2022-11-27T23:26:23.394Z,17.05
2022-11-27T23:28:52.006Z,19.67
2022-11-27T23:31:36.462Z,15.95
2022-11-27T23:36:33.357Z,16.35
2022-11-27T23:39:01.395Z,16.35
2022-11-27T23:41:29.248Z,17.38
2022-11-27T23:43:56.942Z,14.75
2022-11-27T23:46:26.179Z,14.10
2022-11-27T23:48:54.597Z,14.80
2022-11-27T23:51:23.475Z,16.50
2022-11-27T23:53:52.393Z,15.63
2022-11-27T23:56:20.596Z,18.83
2022-11-27T23:58:48.330Z,16.02
